Time;durP1;ratioP1;P1;durP2;ratioP2;P2;SDS_P1;SDS_P2;PMS_P1;PMS_P2;Temp;Humidity;BMP_temperature;BMP_pressure;BME280_temperature;BME280_humidity;BME280_pressure;Samples;Min_cycle;Max_cycle;Signal;HPM_P1;HPM_P2
2021/03/22 00:00:34;;;;;;;10.75;3.78;;;6.90;99.90;;;;;;5022054;28;20060;-86
2021/03/22 00:03:01;;;;;;;17.67;4.20;;;6.80;99.90;;;;;;5021512;28;20050;-86
2021/03/22 00:05:28;;;;;;;17.90;4.95;;;6.80;99.90;;;;;;5022612;28;20436;-86
2021/03/22 00:07:55;;;;;;;7.97;3.95;;;6.80;99.90;;;;;;5020320;28;20050;-86
2021/03/22 00:10:23;;;;;;;13.20;4.03;;;6.80;99.90;;;;;;5019668;28;20046;-86
2021/03/22 00:12:50;;;;;;;14.85;4.63;;;6.80;99.90;;;;;;5019444;28;20064;-86
2021/03/22 00:15:17;;;;;;;12.43;3.38;;;6.80;99.90;;;;;;5021838;28;20466;-86
2021/03/22 00:17:44;;;;;;;10.75;3.10;;;6.80;99.90;;;;;;5022960;28;20515;-86
2021/03/22 00:20:12;;;;;;;14.90;3.95;;;6.80;99.90;;;;;;5025711;28;20046;-87
2021/03/22 00:22:38;;;;;;;13.65;3.67;;;6.80;99.90;;;;;;5012576;28;20129;-87
2021/03/22 00:25:06;;;;;;;12.52;3.47;;;6.80;99.90;;;;;;5003359;28;20050;-86
2021/03/22 00:27:34;;;;;;;12.70;3.40;;;6.80;99.90;;;;;;5003346;28;20129;-85
2021/03/22 00:30:00;;;;;;;12.80;4.35;;;6.80;99.90;;;;;;5003024;28;20129;-86
2021/03/22 00:32:27;;;;;;;13.85;5.40;;;6.80;99.90;;;;;;5003785;28;20051;-86
2021/03/22 00:34:53;;;;;;;5.68;3.20;;;6.80;99.90;;;;;;5004600;28;20053;-86
2021/03/22 00:45:51;;;;;;;7.55;3.88;;;6.80;99.90;;;;;;5221677;22;20437;-84
2021/03/22 00:48:18;;;;;;;13.57;3.75;;;6.80;99.90;;;;;;5032986;28;20080;-84
2021/03/22 00:50:45;;;;;;;12.18;3.70;;;6.80;99.90;;;;;;5031611;28;20129;-84
2021/03/22 00:53:12;;;;;;;17.60;6.00;;;6.70;99.90;;;;;;5017405;28;20057;-85
2021/03/22 00:55:39;;;;;;;11.18;3.80;;;6.70;99.90;;;;;;5014482;28;20042;-84
2021/03/22 00:58:07;;;;;;;14.95;4.60;;;6.70;99.90;;;;;;5017846;28;20114;-86
2021/03/22 01:03:26;;;;;;;15.35;4.47;;;6.70;99.90;;;;;;5321840;22;20058;-84
2021/03/22 01:05:52;;;;;;;9.02;4.30;;;6.70;99.90;;;;;;5027045;28;20060;-84
2021/03/22 01:08:19;;;;;;;8.93;3.55;;;6.70;99.90;;;;;;5025714;28;20389;-85
2021/03/22 01:10:47;;;;;;;14.05;3.95;;;6.70;99.90;;;;;;5025076;28;20049;-84
2021/03/22 01:13:15;;;;;;;13.85;3.53;;;6.70;99.90;;;;;;5010622;28;20042;-85
2021/03/22 01:15:42;;;;;;;20.77;5.00;;;6.70;99.90;;;;;;5006248;28;20145;-85
2021/03/22 01:18:09;;;;;;;11.43;3.55;;;6.70;99.90;;;;;;5004175;28;20076;-83
2021/03/22 01:20:38;;;;;;;12.63;4.15;;;6.70;99.90;;;;;;5003268;28;20068;-84
2021/03/22 01:23:05;;;;;;;8.43;3.58;;;6.70;99.90;;;;;;5017419;28;20129;-85
2021/03/22 01:25:31;;;;;;;6.80;3.58;;;6.70;99.90;;;;;;5024016;28;20477;-85
2021/03/22 01:27:58;;;;;;;12.07;4.05;;;6.70;99.90;;;;;;5024083;28;20045;-84
2021/03/22 01:30:26;;;;;;;15.60;4.38;;;6.70;99.90;;;;;;5025669;28;20106;-85
2021/03/22 01:32:53;;;;;;;8.75;4.00;;;6.70;99.90;;;;;;5029449;28;20046;-85
2021/03/22 01:35:20;;;;;;;15.75;4.40;;;6.70;99.90;;;;;;5027635;28;20045;-86
2021/03/22 01:37:48;;;;;;;16.90;5.35;;;6.70;99.90;;;;;;5026971;28;20054;-86
2021/03/22 01:40:22;;;;;;;8.02;3.58;;;6.70;99.90;;;;;;5028064;28;20129;-85
2021/03/22 01:42:57;;;;;;;9.30;3.80;;;6.70;99.90;;;;;;5031472;28;20057;-85
2021/03/22 01:45:24;;;;;;;9.35;4.25;;;6.60;99.90;;;;;;5028430;28;20064;-85
2021/03/22 01:47:51;;;;;;;11.45;4.38;;;6.60;99.90;;;;;;5029745;28;20378;-86
2021/03/22 01:50:20;;;;;;;10.90;3.97;;;6.70;99.90;;;;;;5027360;28;20089;-85
2021/03/22 01:52:48;;;;;;;11.30;3.92;;;6.70;99.90;;;;;;5026431;28;20368;-87
2021/03/22 01:55:14;;;;;;;13.85;4.13;;;6.70;99.90;;;;;;5026393;28;20056;-85
2021/03/22 01:57:41;;;;;;;8.32;3.72;;;6.60;99.90;;;;;;5024422;28;20139;-85
2021/03/22 02:00:15;;;;;;;10.18;4.03;;;6.60;99.90;;;;;;5025950;28;20054;-85
2021/03/22 02:02:42;;;;;;;11.52;3.75;;;6.60;99.90;;;;;;5026880;28;20065;-86
2021/03/22 02:05:10;;;;;;;11.60;4.40;;;6.60;99.90;;;;;;5025643;28;20064;-86
2021/03/22 02:07:37;;;;;;;9.90;3.95;;;6.70;99.90;;;;;;5024972;28;20205;-86
2021/03/22 02:10:06;;;;;;;8.57;3.58;;;6.70;99.90;;;;;;5023945;28;20068;-84
2021/03/22 02:12:32;;;;;;;16.20;4.90;;;6.70;99.90;;;;;;5022143;28;20052;-85
2021/03/22 02:15:00;;;;;;;9.50;5.32;;;6.70;99.90;;;;;;5022438;28;20494;-85
2021/03/22 02:17:30;;;;;;;14.30;4.60;;;6.70;99.90;;;;;;5021718;28;20060;-85
2021/03/22 02:22:51;;;;;;;12.02;5.45;;;6.70;99.90;;;;;;5296625;22;20056;-86
2021/03/22 02:25:27;;;;;;;9.30;4.38;;;6.70;99.90;;;;;;5024782;28;20057;-85
2021/03/22 02:36:05;;;;;;;9.27;3.80;;;6.70;99.90;;;;;;5198562;22;20142;-84
2021/03/22 02:38:33;;;;;;;11.27;4.18;;;6.70;99.90;;;;;;5008438;28;20484;-85
2021/03/22 02:41:02;;;;;;;11.30;3.90;;;6.70;99.90;;;;;;5022748;28;20140;-85
2021/03/22 02:43:33;;;;;;;12.68;4.80;;;6.70;99.90;;;;;;5025957;28;20132;-84
2021/03/22 02:46:00;;;;;;;8.27;4.35;;;6.80;99.90;;;;;;5026529;28;20046;-84
2021/03/22 02:48:28;;;;;;;17.33;4.53;;;6.70;99.90;;;;;;5026624;28;20132;-85
2021/03/22 02:51:00;;;;;;;7.72;3.30;;;6.70;99.90;;;;;;5025409;28;20140;-85
2021/03/22 02:53:38;;;;;;;10.77;4.35;;;6.70;99.90;;;;;;5023257;28;20082;-85
2021/03/22 02:56:09;;;;;;;9.13;3.88;;;6.70;99.90;;;;;;5021156;28;20049;-86
2021/03/22 02:58:40;;;;;;;13.55;4.38;;;6.70;99.90;;;;;;5019588;28;20112;-85
2021/03/22 03:01:10;;;;;;;8.10;3.53;;;6.80;99.90;;;;;;5022038;28;20053;-85
2021/03/22 03:03:37;;;;;;;14.57;4.35;;;6.80;99.90;;;;;;5022849;28;20060;-85
2021/03/22 03:06:04;;;;;;;11.02;4.97;;;6.70;99.90;;;;;;5023906;28;20050;-86
2021/03/22 03:08:34;;;;;;;10.90;4.25;;;6.70;99.90;;;;;;5023449;28;20064;-85
2021/03/22 03:11:01;;;;;;;8.88;4.80;;;6.70;99.90;;;;;;5022293;28;20054;-85
2021/03/22 03:13:27;;;;;;;16.48;4.70;;;6.80;99.90;;;;;;5022352;28;20107;-85
2021/03/22 03:15:54;;;;;;;8.93;4.47;;;6.70;99.90;;;;;;5022981;28;20050;-84
2021/03/22 03:18:21;;;;;;;8.18;3.80;;;6.70;99.90;;;;;;5024305;28;20054;-84
2021/03/22 03:20:47;;;;;;;11.18;3.92;;;6.70;99.90;;;;;;5027116;28;20050;-84
2021/03/22 03:23:14;;;;;;;13.27;5.15;;;6.70;99.90;;;;;;5025785;28;20056;-84
2021/03/22 03:25:42;;;;;;;11.93;4.35;;;6.70;99.90;;;;;;5027973;28;20046;-85
2021/03/22 03:28:09;;;;;;;10.40;3.67;;;6.70;99.90;;;;;;5027820;28;20056;-85
2021/03/22 03:30:37;;;;;;;20.33;6.22;;;6.70;99.90;;;;;;5030536;28;20118;-85
2021/03/22 03:33:04;;;;;;;12.98;4.07;;;6.70;99.90;;;;;;5027162;28;20060;-85
2021/03/22 03:35:31;;;;;;;15.50;4.90;;;6.70;99.90;;;;;;5029693;28;20092;-85
2021/03/22 03:37:58;;;;;;;8.07;4.10;;;6.70;99.90;;;;;;5027823;28;20115;-85
2021/03/22 03:40:26;;;;;;;9.50;4.50;;;6.70;99.90;;;;;;5027697;28;20054;-85
2021/03/22 03:42:53;;;;;;;11.10;4.20;;;6.70;99.90;;;;;;5030158;28;20105;-85
2021/03/22 03:45:20;;;;;;;11.85;5.03;;;6.70;99.90;;;;;;5023976;28;20054;-84
2021/03/22 03:47:47;;;;;;;10.70;3.83;;;6.70;99.90;;;;;;5027706;28;20045;-84
2021/03/22 03:50:16;;;;;;;13.57;3.88;;;6.70;99.90;;;;;;5027333;28;20064;-84
2021/03/22 03:52:43;;;;;;;12.07;4.50;;;6.70;99.90;;;;;;5013722;28;20447;-84
2021/03/22 03:55:10;;;;;;;10.95;4.40;;;6.70;99.90;;;;;;5005462;28;20137;-84
2021/03/22 03:57:36;;;;;;;15.85;4.07;;;6.70;99.90;;;;;;5005928;28;20050;-84
2021/03/22 04:00:08;;;;;;;8.15;3.15;;;6.70;99.90;;;;;;5005151;28;20110;-84
2021/03/22 04:02:35;;;;;;;7.97;3.08;;;6.70;99.90;;;;;;5007750;28;20042;-84
2021/03/22 04:05:02;;;;;;;9.18;3.53;;;6.80;99.90;;;;;;5006575;28;20428;-84
2021/03/22 04:07:29;;;;;;;7.95;3.45;;;6.70;99.90;;;;;;5008999;28;20204;-85
2021/03/22 04:09:57;;;;;;;9.02;3.88;;;6.70;99.90;;;;;;5010472;28;20193;-84
2021/03/22 04:12:24;;;;;;;8.80;3.53;;;6.70;99.90;;;;;;5010584;28;20051;-84
2021/03/22 04:14:50;;;;;;;7.47;2.70;;;6.70;99.90;;;;;;5007882;28;20090;-83
2021/03/22 04:17:18;;;;;;;5.53;2.25;;;6.70;99.90;;;;;;5009840;28;20054;-84
2021/03/22 04:19:44;;;;;;;6.30;2.45;;;6.80;99.90;;;;;;5008943;28;20137;-84
2021/03/22 04:22:11;;;;;;;7.45;3.15;;;6.80;99.90;;;;;;5009447;28;20398;-85
2021/03/22 04:24:38;;;;;;;10.77;3.97;;;6.80;99.90;;;;;;5009225;28;20133;-84
2021/03/22 04:27:06;;;;;;;7.68;2.95;;;6.80;99.90;;;;;;5005338;28;20137;-83
2021/03/22 04:29:33;;;;;;;7.03;2.47;;;6.80;99.90;;;;;;5006621;28;20068;-85
2021/03/22 04:31:59;;;;;;;9.35;2.50;;;6.80;99.90;;;;;;5008537;28;20111;-85
2021/03/22 04:34:27;;;;;;;7.25;2.10;;;6.80;99.90;;;;;;5009043;28;20141;-85
2021/03/22 04:36:53;;;;;;;7.22;2.58;;;6.80;99.90;;;;;;5010326;28;20391;-85
2021/03/22 04:39:20;;;;;;;7.07;1.95;;;6.80;99.90;;;;;;5009859;28;20057;-85
2021/03/22 04:41:47;;;;;;;5.65;1.88;;;6.80;99.90;;;;;;5009909;28;20082;-84
2021/03/22 04:44:13;;;;;;;8.50;1.85;;;6.80;99.90;;;;;;5010179;28;20082;-85
2021/03/22 04:46:40;;;;;;;7.28;2.28;;;6.80;99.90;;;;;;5008602;28;20050;-85
2021/03/22 04:49:07;;;;;;;5.32;2.13;;;6.80;99.90;;;;;;5009029;28;20061;-84
2021/03/22 04:51:35;;;;;;;6.25;2.00;;;6.80;99.90;;;;;;5011860;28;20054;-85
2021/03/22 04:54:01;;;;;;;7.65;2.70;;;6.80;99.90;;;;;;5014409;28;20061;-84
2021/03/22 04:56:28;;;;;;;5.30;2.10;;;6.80;99.90;;;;;;5015025;28;20058;-85
2021/03/22 04:58:56;;;;;;;8.63;2.42;;;6.80;99.90;;;;;;5016535;28;20134;-84
2021/03/22 05:01:22;;;;;;;8.25;2.20;;;6.80;99.90;;;;;;5014175;28;20050;-85
2021/03/22 05:03:49;;;;;;;7.53;2.83;;;6.80;99.90;;;;;;5012793;28;20047;-83
2021/03/22 05:06:15;;;;;;;9.52;2.08;;;6.80;99.90;;;;;;5015112;28;20515;-85
2021/03/22 05:08:43;;;;;;;7.80;1.98;;;6.80;99.90;;;;;;5014358;28;20137;-85
2021/03/22 05:11:10;;;;;;;9.40;2.75;;;6.80;99.90;;;;;;5013716;28;20046;-85
2021/03/22 05:13:37;;;;;;;5.88;1.95;;;6.80;99.90;;;;;;5010377;28;20106;-85
2021/03/22 05:16:04;;;;;;;8.73;1.90;;;6.80;99.90;;;;;;5012756;28;20105;-84
2021/03/22 05:18:32;;;;;;;6.68;2.03;;;6.80;99.90;;;;;;5011354;28;20113;-83
2021/03/22 05:20:59;;;;;;;8.88;2.30;;;6.80;99.90;;;;;;5009519;28;20065;-83
2021/03/22 05:23:27;;;;;;;5.53;2.33;;;6.80;99.90;;;;;;5011363;28;20133;-84
2021/03/22 05:25:55;;;;;;;4.55;2.08;;;6.80;99.90;;;;;;5014864;28;20078;-83
2021/03/22 05:28:22;;;;;;;7.70;2.38;;;6.80;99.90;;;;;;5016806;28;20129;-83
2021/03/22 05:30:49;;;;;;;9.55;2.83;;;6.80;99.90;;;;;;5013745;28;20054;-83
2021/03/22 05:33:16;;;;;;;5.60;2.45;;;6.80;99.90;;;;;;5014372;28;20447;-84
2021/03/22 05:35:43;;;;;;;4.95;3.05;;;6.90;99.90;;;;;;5014244;28;20063;-84
2021/03/22 05:38:10;;;;;;;6.88;3.22;;;6.90;99.90;;;;;;5015767;28;20056;-84
2021/03/22 05:40:38;;;;;;;6.28;2.58;;;6.90;99.90;;;;;;5014476;28;20106;-84
2021/03/22 05:43:12;;;;;;;12.43;3.30;;;6.90;99.90;;;;;;5017459;28;20078;-84
2021/03/22 05:45:52;;;;;;;5.00;2.67;;;6.90;99.90;;;;;;5018161;28;20110;-84
2021/03/22 05:48:30;;;;;;;10.18;2.50;;;6.90;99.90;;;;;;5014962;28;20085;-84
2021/03/22 05:53:43;;;;;;;7.95;3.20;;;6.90;99.90;;;;;;6115785;22;20026;-85
2021/03/22 06:04:05;;;;;;;8.05;3.88;;;6.90;99.90;;;;;;5853192;22;20652;-84
2021/03/22 06:06:35;;;;;;;5.45;3.47;;;7.00;99.90;;;;;;5037296;28;20089;-82
2021/03/22 06:09:05;;;;;;;6.43;3.05;;;7.00;99.90;;;;;;5038535;28;20030;-83
2021/03/22 06:14:18;;;;;;;13.82;4.13;;;7.00;99.90;;;;;;5259394;22;20046;-83
2021/03/22 06:16:46;;;;;;;6.05;2.95;;;7.00;99.90;;;;;;5036239;28;20053;-84
2021/03/22 06:19:15;;;;;;;12.30;4.10;;;7.00;99.90;;;;;;5027499;28;20068;-84
2021/03/22 06:21:45;;;;;;;7.65;4.07;;;7.00;99.90;;;;;;5019193;28;20046;-86
2021/03/22 06:24:14;;;;;;;11.15;3.30;;;7.00;99.90;;;;;;5005097;28;20477;-85
2021/03/22 06:26:42;;;;;;;12.18;3.55;;;7.10;99.90;;;;;;4999552;28;20154;-84
2021/03/22 06:29:14;;;;;;;10.30;3.20;;;7.10;99.90;;;;;;4999510;28;20058;-84
2021/03/22 06:31:41;;;;;;;6.75;2.88;;;7.10;99.90;;;;;;4999013;28;20384;-83
2021/03/22 06:34:08;;;;;;;7.75;2.70;;;7.10;99.90;;;;;;5003179;28;20124;-84
2021/03/22 06:36:35;;;;;;;4.80;3.00;;;7.10;99.90;;;;;;5003248;28;20050;-84
2021/03/22 06:39:04;;;;;;;7.57;2.28;;;7.00;99.90;;;;;;5007733;28;20050;-83
2021/03/22 06:41:34;;;;;;;5.03;2.65;;;7.10;99.90;;;;;;5003309;28;20557;-84
2021/03/22 06:44:01;;;;;;;8.68;3.08;;;7.10;99.90;;;;;;5004970;28;20042;-84
2021/03/22 06:46:28;;;;;;;8.77;3.10;;;7.10;99.90;;;;;;4999505;28;20072;-84
2021/03/22 06:48:57;;;;;;;7.45;2.45;;;7.10;99.90;;;;;;4998107;28;20052;-84
2021/03/22 06:51:24;;;;;;;6.25;2.55;;;7.10;99.90;;;;;;4997305;28;20135;-85
2021/03/22 06:53:52;;;;;;;6.72;3.10;;;7.10;99.90;;;;;;4996978;28;20057;-85
2021/03/22 06:56:21;;;;;;;5.22;2.33;;;7.10;99.90;;;;;;4996617;28;20459;-85
2021/03/22 06:58:49;;;;;;;5.82;2.25;;;7.10;99.90;;;;;;4997450;28;20136;-84
2021/03/22 07:01:26;;;;;;;4.60;2.28;;;7.10;99.90;;;;;;4993808;28;20390;-85
2021/03/22 07:03:53;;;;;;;6.35;2.78;;;7.10;99.90;;;;;;4993726;28;20046;-85
2021/03/22 07:06:21;;;;;;;10.15;2.60;;;7.10;99.90;;;;;;4995306;28;20054;-86
2021/03/22 07:08:47;;;;;;;14.75;3.58;;;7.10;99.90;;;;;;4995159;28;20065;-84
2021/03/22 07:11:16;;;;;;;6.90;2.10;;;7.10;99.90;;;;;;4995413;28;20489;-85
2021/03/22 07:13:52;;;;;;;5.63;2.03;;;7.10;99.90;;;;;;4995809;28;20097;-86
2021/03/22 07:16:19;;;;;;;4.75;1.98;;;7.10;99.90;;;;;;4995749;28;20124;-85
2021/03/22 07:19:05;;;;;;;6.40;2.50;;;7.10;99.90;;;;;;4995220;28;20088;-85
2021/03/22 07:21:31;;;;;;;7.13;2.40;;;7.10;99.90;;;;;;4995033;28;20068;-86
2021/03/22 07:24:10;;;;;;;6.07;2.03;;;7.20;99.90;;;;;;4995415;28;20050;-85
2021/03/22 07:26:52;;;;;;;6.60;2.78;;;7.20;99.90;;;;;;4995416;28;20116;-86
2021/03/22 07:29:45;;;;;;;7.32;2.50;;;7.20;99.90;;;;;;4995377;28;20134;-85
2021/03/22 07:32:18;;;;;;;5.68;2.35;;;7.20;99.90;;;;;;4992386;28;20058;-85
2021/03/22 07:34:49;;;;;;;10.60;2.83;;;7.20;99.90;;;;;;4994825;28;20060;-86
2021/03/22 07:37:23;;;;;;;7.00;2.28;;;7.20;99.90;;;;;;4994612;28;20108;-86
2021/03/22 07:39:52;;;;;;;3.85;1.92;;;7.20;99.90;;;;;;4994902;28;20054;-85
2021/03/22 07:42:36;;;;;;;10.63;3.58;;;7.20;99.90;;;;;;4995990;28;20192;-85
2021/03/22 07:45:22;;;;;;;5.60;2.90;;;7.20;99.90;;;;;;4996839;28;20108;-85
2021/03/22 07:48:00;;;;;;;8.10;2.53;;;7.20;99.90;;;;;;4994990;28;20054;-86
2021/03/22 07:50:29;;;;;;;6.88;3.70;;;7.30;99.90;;;;;;4996946;28;20050;-87
2021/03/22 07:52:56;;;;;;;5.63;2.78;;;7.30;99.90;;;;;;4997599;28;20060;-88
2021/03/22 07:55:45;;;;;;;9.02;2.80;;;7.40;99.90;;;;;;4997875;28;20054;-87
2021/03/22 07:58:20;;;;;;;10.18;3.10;;;7.40;99.90;;;;;;4998181;28;20050;-85
2021/03/22 08:00:53;;;;;;;9.85;2.97;;;7.40;99.90;;;;;;4997694;28;20046;-85
2021/03/22 08:03:24;;;;;;;9.27;2.95;;;7.40;99.90;;;;;;4997936;28;20054;-85
2021/03/22 08:06:20;;;;;;;7.80;2.90;;;7.40;99.90;;;;;;4998876;28;20050;-84
2021/03/22 08:08:54;;;;;;;7.05;3.30;;;7.50;99.90;;;;;;4991495;28;20061;-86
2021/03/22 08:11:24;;;;;;;4.63;2.42;;;7.50;99.90;;;;;;4997864;28;20073;-87
2021/03/22 08:13:53;;;;;;;7.97;3.40;;;7.50;99.90;;;;;;4997516;28;20507;-87
2021/03/22 08:19:18;;;;;;;8.63;3.10;;;7.50;99.90;;;;;;5048790;22;20437;-87
2021/03/22 08:21:46;;;;;;;9.98;3.22;;;7.60;99.90;;;;;;5017192;28;20046;-88
2021/03/22 08:24:17;;;;;;;8.02;3.55;;;7.60;99.90;;;;;;5016916;28;20421;-88
2021/03/22 08:26:50;;;;;;;11.77;3.40;;;7.70;99.90;;;;;;5017011;28;20386;-90
2021/03/22 08:29:19;;;;;;;9.80;3.90;;;7.70;99.90;;;;;;5016750;28;20053;-89
2021/03/22 08:31:49;;;;;;;5.10;2.75;;;7.80;99.90;;;;;;5016861;28;20469;-89
2021/03/22 08:34:19;;;;;;;13.50;3.20;;;7.80;99.90;;;;;;5016493;28;20050;-90
2021/03/22 08:36:50;;;;;;;9.20;3.17;;;7.80;99.90;;;;;;5016836;28;20053;-89
2021/03/22 08:39:22;;;;;;;8.75;3.20;;;7.80;99.90;;;;;;5016478;28;20060;-90
2021/03/22 08:41:54;;;;;;;8.80;3.47;;;7.90;99.90;;;;;;5016857;28;20050;-90
2021/03/22 08:44:24;;;;;;;7.82;3.58;;;7.90;99.90;;;;;;5016634;28;20049;-89
2021/03/22 08:46:52;;;;;;;5.82;3.33;;;7.90;99.90;;;;;;5016567;28;20046;-89
2021/03/22 08:49:23;;;;;;;7.85;3.25;;;7.90;99.90;;;;;;5016592;28;20360;-91
2021/03/22 08:51:49;;;;;;;12.48;3.95;;;7.90;99.90;;;;;;5016075;28;20045;-90
2021/03/22 08:54:22;;;;;;;14.27;4.13;;;8.00;99.90;;;;;;5015690;28;20046;-89
2021/03/22 08:56:52;;;;;;;12.35;3.33;;;8.00;99.90;;;;;;5016310;28;20474;-90
2021/03/22 08:59:19;;;;;;;14.23;4.20;;;8.00;99.90;;;;;;5016175;28;20060;-90
2021/03/22 09:01:47;;;;;;;10.77;4.32;;;8.10;99.90;;;;;;5015978;28;20060;-90
2021/03/22 09:04:28;;;;;;;8.93;3.60;;;8.10;99.90;;;;;;5016176;28;20466;-90
2021/03/22 09:07:00;;;;;;;13.68;4.35;;;8.20;99.90;;;;;;5016168;28;20115;-91
2021/03/22 09:09:29;;;;;;;9.40;4.32;;;8.30;99.90;;;;;;5016101;28;20050;-91
2021/03/22 09:11:55;;;;;;;14.23;4.25;;;8.40;99.90;;;;;;5015850;28;20141;-91
2021/03/22 09:14:42;;;;;;;8.60;3.95;;;8.40;99.90;;;;;;5016188;28;20386;-90
2021/03/22 09:17:54;;;;;;;8.13;3.53;;;8.50;99.90;;;;;;5015747;28;20360;-90
2021/03/22 09:20:24;;;;;;;7.50;4.45;;;8.50;99.90;;;;;;4936764;29;20063;-90
2021/03/22 09:22:55;;;;;;;7.65;3.00;;;8.60;99.90;;;;;;4936496;29;20070;-90
2021/03/22 09:26:00;;;;;;;6.15;3.13;;;8.60;99.90;;;;;;4936693;29;20059;-90
2021/03/22 09:28:43;;;;;;;7.75;3.17;;;8.60;99.90;;;;;;4936714;29;20056;-90
2021/03/22 09:31:38;;;;;;;11.90;4.53;;;8.60;99.90;;;;;;4936790;29;20091;-90
2021/03/22 09:34:05;;;;;;;8.88;4.22;;;8.60;99.90;;;;;;4879929;29;20063;-91
2021/03/22 09:36:35;;;;;;;11.45;3.50;;;8.70;99.90;;;;;;4880129;29;20067;-91
2021/03/22 09:39:04;;;;;;;10.50;2.63;;;8.70;99.90;;;;;;4879814;29;20053;-92
2021/03/22 09:42:05;;;;;;;6.60;2.90;;;8.70;99.90;;;;;;4879878;29;20059;-91
2021/03/22 09:44:33;;;;;;;7.43;3.28;;;8.70;99.90;;;;;;4879879;29;20490;-91
2021/03/22 09:47:18;;;;;;;16.77;3.80;;;8.80;99.90;;;;;;4879751;29;20049;-91
2021/03/22 09:50:22;;;;;;;11.10;4.18;;;8.80;99.90;;;;;;4879932;29;20053;-91
2021/03/22 09:53:18;;;;;;;6.78;4.10;;;8.80;99.90;;;;;;4857168;29;20248;-89
2021/03/22 09:56:04;;;;;;;6.95;3.22;;;8.80;99.90;;;;;;4955346;29;20066;-90
2021/03/22 09:58:34;;;;;;;8.45;3.20;;;8.80;99.90;;;;;;4955402;29;20476;-91
2021/03/22 10:01:03;;;;;;;6.45;3.92;;;8.80;99.90;;;;;;4955105;29;20547;-90
2021/03/22 10:03:51;;;;;;;4.18;2.90;;;8.90;99.90;;;;;;4955210;29;20163;-90
2021/03/22 10:06:44;;;;;;;9.30;3.03;;;8.80;99.90;;;;;;4954781;29;20059;-90
2021/03/22 10:09:19;;;;;;;10.77;2.95;;;8.80;99.90;;;;;;4971289;28;20045;-91
2021/03/22 10:11:47;;;;;;;8.02;2.78;;;8.80;99.90;;;;;;5014427;28;20471;-91
2021/03/22 10:14:21;;;;;;;6.57;2.65;;;8.80;99.90;;;;;;5014975;28;20054;-91
2021/03/22 10:16:50;;;;;;;14.52;3.85;;;8.90;99.90;;;;;;5015088;28;20058;-90
2021/03/22 10:19:18;;;;;;;9.60;2.90;;;8.90;99.90;;;;;;5014910;28;20050;-91
2021/03/22 10:21:45;;;;;;;11.95;3.65;;;8.90;99.90;;;;;;5014905;28;20088;-91
2021/03/22 10:24:21;;;;;;;7.18;2.97;;;8.90;99.90;;;;;;5015203;28;20050;-90
2021/03/22 10:26:48;;;;;;;14.75;3.95;;;8.90;99.90;;;;;;5014797;28;20104;-90
2021/03/22 10:29:23;;;;;;;8.48;3.08;;;8.90;99.90;;;;;;5014676;28;20058;-90
2021/03/22 10:31:50;;;;;;;8.25;2.70;;;8.90;99.90;;;;;;5014889;28;20061;-90
2021/03/22 10:34:21;;;;;;;10.85;3.38;;;8.90;99.90;;;;;;5014821;28;20045;-91
2021/03/22 10:36:47;;;;;;;7.35;2.95;;;8.90;99.90;;;;;;5014615;28;20053;-90
2021/03/22 10:39:23;;;;;;;4.82;3.13;;;9.00;99.90;;;;;;5014386;28;20046;-90
2021/03/22 10:41:50;;;;;;;12.68;3.10;;;9.10;99.90;;;;;;5012625;28;20059;-90
2021/03/22 10:44:21;;;;;;;12.00;3.05;;;9.20;99.90;;;;;;5012824;28;20050;-91
2021/03/22 10:46:47;;;;;;;5.18;2.50;;;9.30;99.90;;;;;;5014474;28;20502;-90
2021/03/22 10:49:22;;;;;;;6.68;2.47;;;9.30;99.90;;;;;;5014618;28;20495;-90
2021/03/22 10:51:51;;;;;;;11.02;2.75;;;9.40;99.90;;;;;;5014339;28;20124;-91
2021/03/22 10:54:19;;;;;;;7.90;3.00;;;9.40;99.90;;;;;;5014773;28;20053;-91
2021/03/22 10:56:54;;;;;;;9.02;3.58;;;9.40;99.90;;;;;;5014253;28;20137;-92
2021/03/22 10:59:23;;;;;;;17.83;3.17;;;9.50;99.90;;;;;;5014063;28;20065;-91
2021/03/22 11:01:51;;;;;;;9.43;3.85;;;9.50;99.90;;;;;;5014365;28;20104;-91
2021/03/22 11:04:20;;;;;;;7.68;2.33;;;9.50;99.90;;;;;;5014193;28;20128;-90
2021/03/22 11:06:48;;;;;;;4.22;2.50;;;9.50;99.90;;;;;;5013396;28;20585;-92
2021/03/22 11:09:20;;;;;;;7.72;2.67;;;9.50;99.90;;;;;;5014362;28;20168;-92
2021/03/22 11:11:47;;;;;;;8.98;3.47;;;9.50;99.90;;;;;;5014542;28;20207;-93
2021/03/22 11:14:17;;;;;;;4.80;2.47;;;9.40;99.90;;;;;;5020576;28;20081;-88
2021/03/22 11:16:43;;;;;;;5.53;2.78;;;9.50;99.90;;;;;;5017415;28;20100;-92
2021/03/22 11:19:23;;;;;;;9.82;2.85;;;9.50;99.90;;;;;;5014887;28;20078;-94
2021/03/22 11:21:50;;;;;;;8.90;2.67;;;9.60;99.90;;;;;;5014605;28;20105;-92
2021/03/22 11:24:17;;;;;;;10.98;2.65;;;9.60;99.90;;;;;;5017324;28;20109;-92
2021/03/22 11:26:56;;;;;;;7.47;3.45;;;9.60;99.90;;;;;;5018606;28;20141;-92
2021/03/22 11:29:26;;;;;;;9.70;3.40;;;9.70;99.90;;;;;;5018839;28;20133;-90
2021/03/22 11:31:56;;;;;;;12.23;5.38;;;9.80;99.90;;;;;;5018401;28;20291;-92
2021/03/22 11:34:27;;;;;;;10.52;3.58;;;9.80;99.90;;;;;;5018441;28;20050;-93
2021/03/22 11:37:02;;;;;;;4.85;2.35;;;9.80;99.90;;;;;;5018249;28;20093;-92
2021/03/22 11:39:30;;;;;;;8.90;2.47;;;9.80;99.90;;;;;;5018277;28;20147;-93
2021/03/22 11:42:16;;;;;;;10.70;3.75;;;9.90;99.90;;;;;;5018478;28;20045;-92
2021/03/22 11:44:44;;;;;;;8.90;2.70;;;10.00;99.90;;;;;;5018170;28;20072;-92
2021/03/22 11:47:37;;;;;;;5.47;2.63;;;10.10;99.90;;;;;;5018527;28;20421;-93
2021/03/22 11:50:38;;;;;;;10.25;2.88;;;10.20;99.90;;;;;;5014993;28;20136;-93
2021/03/22 11:53:10;;;;;;;7.90;3.15;;;10.30;99.90;;;;;;4971802;28;20464;-93
2021/03/22 11:55:39;;;;;;;8.32;2.53;;;10.40;99.90;;;;;;4977215;28;20061;-92
2021/03/22 11:58:06;;;;;;;10.63;3.13;;;10.50;99.90;;;;;;4977351;28;20105;-91
2021/03/22 12:00:35;;;;;;;10.02;3.50;;;10.50;99.90;;;;;;4977500;28;20130;-92
2021/03/22 12:03:08;;;;;;;8.10;3.38;;;10.50;99.90;;;;;;4959073;28;20488;-92
2021/03/22 12:05:36;;;;;;;7.00;2.92;;;10.50;99.90;;;;;;4957804;29;20055;-89
2021/03/22 12:08:36;;;;;;;8.32;3.30;;;10.60;99.90;;;;;;4957666;29;20130;-89
2021/03/22 12:11:04;;;;;;;7.93;2.90;;;10.60;99.90;;;;;;4957428;29;20150;-89
2021/03/22 12:13:30;;;;;;;11.90;4.03;;;10.60;99.90;;;;;;4956721;29;20086;-91
2021/03/22 12:15:58;;;;;;;6.05;2.67;;;10.50;99.90;;;;;;4957376;29;20135;-89
2021/03/22 12:18:28;;;;;;;8.48;4.70;;;10.50;99.90;;;;;;4957491;28;20161;-91
2021/03/22 12:20:54;;;;;;;8.80;2.72;;;10.50;99.90;;;;;;4957345;29;20137;-90
2021/03/22 12:23:21;;;;;;;5.85;3.67;;;10.50;99.90;;;;;;4957323;29;20054;-90
2021/03/22 12:25:48;;;;;;;10.68;3.10;;;10.40;99.90;;;;;;4957509;29;20176;-89
2021/03/22 12:28:14;;;;;;;7.60;3.78;;;10.40;99.90;;;;;;5015457;28;20471;-90
2021/03/22 12:30:41;;;;;;;10.48;3.50;;;10.40;99.90;;;;;;5017288;28;20488;-90
2021/03/22 12:33:13;;;;;;;7.15;3.40;;;10.40;99.90;;;;;;5017498;28;20042;-89
2021/03/22 12:35:39;;;;;;;6.53;3.10;;;10.30;99.90;;;;;;5016469;28;20064;-94
2021/03/22 12:38:07;;;;;;;6.35;3.70;;;10.30;99.90;;;;;;5016993;28;20049;-93
2021/03/22 12:40:33;;;;;;;3.90;2.67;;;10.40;99.90;;;;;;5016878;28;20123;-92
2021/03/22 12:43:00;;;;;;;5.78;2.97;;;10.40;99.90;;;;;;5016346;28;20085;-92
2021/03/22 12:45:28;;;;;;;6.68;2.92;;;10.40;99.90;;;;;;5016849;28;20477;-92
2021/03/22 12:47:55;;;;;;;6.05;2.53;;;10.40;99.90;;;;;;5017129;28;20459;-92
2021/03/22 12:50:24;;;;;;;6.25;3.08;;;10.40;99.90;;;;;;5016742;28;20046;-92
2021/03/22 12:52:51;;;;;;;10.43;2.60;;;10.50;99.90;;;;;;5016426;28;20446;-91
2021/03/22 12:55:18;;;;;;;5.85;2.53;;;10.60;99.90;;;;;;5016662;28;20058;-92
2021/03/22 12:57:45;;;;;;;3.97;2.40;;;10.60;99.90;;;;;;5016391;28;20076;-92
2021/03/22 13:00:13;;;;;;;3.90;2.65;;;10.60;99.90;;;;;;5016603;28;20056;-92
2021/03/22 13:02:40;;;;;;;5.95;2.90;;;10.60;99.90;;;;;;5016442;28;20064;-85
2021/03/22 13:05:14;;;;;;;5.18;2.80;;;10.60;99.90;;;;;;5016300;28;20425;-85
2021/03/22 13:07:41;;;;;;;5.57;2.50;;;10.60;99.90;;;;;;5016102;28;20474;-90
2021/03/22 13:10:09;;;;;;;11.23;3.28;;;10.70;99.90;;;;;;5016267;28;20378;-90
2021/03/22 13:12:35;;;;;;;3.83;3.03;;;10.70;99.90;;;;;;5016264;28;20046;-91
2021/03/22 13:15:02;;;;;;;5.90;2.80;;;10.80;99.90;;;;;;5016487;28;20056;-90
2021/03/22 13:17:31;;;;;;;3.88;3.00;;;10.90;99.90;;;;;;5015935;28;20064;-89
2021/03/22 13:19:57;;;;;;;4.50;3.22;;;11.00;99.90;;;;;;5016111;28;20052;-89
2021/03/22 13:22:25;;;;;;;4.53;2.90;;;11.00;99.90;;;;;;5016191;28;20060;-89
2021/03/22 13:24:54;;;;;;;4.95;3.15;;;11.10;99.90;;;;;;5015950;28;20049;-89
2021/03/22 13:27:21;;;;;;;4.30;2.95;;;11.20;99.90;;;;;;5015879;28;20058;-90
2021/03/22 13:29:47;;;;;;;3.90;2.70;;;11.10;99.90;;;;;;5016005;28;20050;-89
2021/03/22 13:32:14;;;;;;;8.00;2.92;;;11.00;99.90;;;;;;5016096;28;20488;-90
2021/03/22 13:34:41;;;;;;;4.53;3.17;;;10.90;99.90;;;;;;5015863;28;20046;-90
2021/03/22 13:37:09;;;;;;;6.43;3.20;;;10.70;99.90;;;;;;5016158;28;20054;-91
2021/03/22 13:39:35;;;;;;;5.38;3.45;;;10.50;99.90;;;;;;5016175;28;20438;-90
2021/03/22 13:42:03;;;;;;;5.97;2.72;;;10.50;99.90;;;;;;5015769;28;20052;-89
2021/03/22 13:44:30;;;;;;;4.70;2.88;;;10.50;99.90;;;;;;5015774;28;20042;-90
2021/03/22 13:46:57;;;;;;;4.65;2.90;;;10.60;99.90;;;;;;5014896;28;20049;-89